Latest Weather Observations for Sydney Harbour

IDN60901

Issued at 12:51 am EST Wednesday 23 August 2017 (issued every 10 minutes, with the page automatically refreshed every 10 minutes)

About weather observations | Map of Sydney area stations | Latest observations for Sydney area | Other Formats
Station Details ID: 066196 Name: WEDDING CAKE WEST Lat: -33.84 Lon: 151.26 Height: 6.0 m
Data from the previous 72 hours. | See also: Recent months at Sydney Harbour
Date/Time
EST
Temp
°C
App
Temp
°C
Dew
Point
°C
Rel
Hum
%
Delta-T
°C
Wind Press
QNH
hPa
Press
MSL
hPa
Rain since
9am
mm
Dir  Spd
km/h
Gust
km/h
Spd
kts
Gust
kts
23/12:30am 13.1 - - - - CALM 0 0 0 0 - - -
23/12:00am 13.1 - - - - ENE 4 9 2 5 - - -
 
Date/Time
EST
Temp
°C
App
Temp
°C
Dew
Point
°C
Rel
Hum
%
Delta-T
°C
Wind Press
QNH
hPa
Press
MSL
hPa
Rain since
9am
mm
Dir  Spd
km/h
Gust
km/h
Spd
kts
Gust
kts
22/11:30pm 13.6 - - - - ENE 7 9 4 5 - - -
22/11:00pm 13.6 - - - - CALM 0 7 0 4 - - -
22/10:30pm 14.5 - - - - ENE 6 9 3 5 - - -
22/10:00pm 14.1 - - - - ENE 11 13 6 7 - - -
22/09:30pm 15.1 - - - - ENE 9 11 5 6 - - -
22/09:00pm 14.9 - - - - ENE 11 13 6 7 - - -
22/08:30pm 16.4 - - - - ENE 13 15 7 8 - - -
22/08:00pm 16.4 - - - - ENE 13 17 7 9 - - -
22/07:30pm 16.3 - - - - E 11 13 6 7 - - -
22/07:00pm 16.3 - - - - E 11 13 6 7 - - -
22/06:30pm 16.3 - - - - E 13 17 7 9 - - -
22/06:00pm 16.1 - - - - E 13 13 7 7 - - -
22/05:30pm 16.1 - - - - E 13 17 7 9 - - -
22/05:00pm 16.7 - - - - E 11 15 6 8 - - -
22/04:30pm 16.8 - - - - E 13 17 7 9 - - -
22/04:00pm 17.3 - - - - E 15 19 8 10 - - -
22/03:30pm 17.4 - - - - E 13 19 7 10 - - -
22/03:00pm 17.0 - - - - ESE 17 20 9 11 - - -
22/02:30pm 17.0 - - - - SE 20 26 11 14 - - -
22/02:00pm 17.0 - - - - ESE 17 22 9 12 - - -
22/01:30pm 16.9 - - - - ESE 19 22 10 12 - - -
22/01:00pm 16.7 - - - - ESE 17 20 9 11 - - -
22/12:30pm 17.6 - - - - WSW 7 13 4 7 - - -
22/12:00pm 16.4 - - - - WSW 9 11 5 6 - - -
22/11:30am 16.5 - - - - WSW 2 9 1 5 - - -
22/11:00am 15.1 - - - - WSW 11 15 6 8 - - -
22/10:30am 14.6 - - - - WSW 11 15 6 8 - - -
22/10:00am 13.7 - - - - WSW 13 15 7 8 - - -
22/09:30am 13.3 - - - - WSW 13 15 7 8 - - -
22/09:00am 12.6 - - - - WSW 13 17 7 9 - - -
22/08:30am 11.8 - - - - WSW 11 15 6 8 - - -
22/08:00am 12.0 - - - - WSW 9 15 5 8 - - -
22/07:30am 11.4 - - - - W 15 19 8 10 - - -
22/07:00am 10.8 - - - - W 17 20 9 11 - - -
22/06:30am 11.2 - - - - W 9 13 5 7 - - -
22/06:00am 10.9 - - - - W 9 13 5 7 - - -
22/05:30am 11.2 - - - - W 13 17 7 9 - - -
22/05:00am 11.2 - - - - W 15 17 8 9 - - -
22/04:30am 11.7 - - - - WSW 11 15 6 8 - - -
22/04:00am 11.6 - - - - WSW 11 15 6 8 - - -
22/03:30am 12.1 - - - - W 9 13 5 7 - - -
22/03:00am 12.1 - - - - W 9 11 5 6 - - -
22/02:30am 12.4 - - - - W 11 13 6 7 - - -
22/02:00am 12.7 - - - - W 13 15 7 8 - - -
22/01:30am 12.9 - - - - W 13 15 7 8 - - -
22/01:00am 13.1 - - - - W 13 15 7 8 - - -
22/12:30am 13.4 - - - - SSW 6 9 3 5 - - -
22/12:00am 13.8 - - - - SSW 7 11 4 6 - - -
 
Date/Time
EST
Temp
°C
App
Temp
°C
Dew
Point
°C
Rel
Hum
%
Delta-T
°C
Wind Press
QNH
hPa
Press
MSL
hPa
Rain since
9am
mm
Dir  Spd
km/h
Gust
km/h
Spd
kts
Gust
kts
21/11:30pm 14.1 - - - - SSW 13 15 7 8 - - -
21/11:00pm 13.7 - - - - SSW 13 15 7 8 - - -
21/10:30pm 14.0 - - - - SSW 13 17 7 9 - - -
21/10:00pm 14.2 - - - - NNW 13 20 7 11 - - -
21/09:30pm 15.0 - - - - N 11 11 6 6 - - -
21/09:00pm 14.7 - - - - N 7 9 4 5 - - -
21/08:30pm 15.1 - - - - N 7 9 4 5 - - -
21/08:00pm 14.7 - - - - N 7 11 4 6 - - -
21/07:30pm 14.8 - - - - N 6 7 3 4 - - -
21/07:00pm 14.6 - - - - CALM 0 0 0 0 - - -
21/06:30pm 15.1 - - - - CALM 0 0 0 0 - - -
21/06:00pm 15.0 - - - - N 6 7 3 4 - - -
21/05:30pm 15.3 - - - - N 11 17 6 9 - - -
21/05:00pm 15.8 - - - - NNW 15 19 8 10 - - -
21/04:30pm 15.8 - - - - NNW 13 15 7 8 - - -
21/04:00pm 15.7 - - - - NNW 13 19 7 10 - - -
21/03:30pm 15.0 - - - - NNE 20 24 11 13 - - -
21/03:00pm 14.7 - - - - NNE 19 22 10 12 - - -
21/02:30pm 14.8 - - - - NNE 17 20 9 11 - - -
21/02:00pm 14.7 - - - - N 13 17 7 9 - - -
21/01:30pm 14.5 - - - - N 11 13 6 7 - - -
21/01:00pm 14.5 - - - - NNW 13 15 7 8 - - -
21/12:30pm 14.5 - - - - NNW 13 17 7 9 - - -
21/12:00pm 14.6 - - - - N 19 24 10 13 - - -
21/11:30am 14.6 - - - - N 11 13 6 7 - - -
21/11:00am 14.4 - - - - N 13 17 7 9 - - -
21/10:30am 14.0 - - - - SW 9 17 5 9 - - -
21/10:00am 12.7 - - - - SW 7 9 4 5 - - -
21/09:30am 12.2 - - - - SW 13 17 7 9 - - -
21/09:00am 11.3 - - - - SW 9 13 5 7 - - -
21/08:30am 11.3 - - - - SW 7 15 4 8 - - -
21/08:00am 10.6 - - - - W 9 11 5 6 - - -
21/07:30am 10.1 - - - - W 7 13 4 7 - - -
21/07:00am 9.6 - - - - WSW 13 22 7 12 - - -
21/06:30am 9.7 - - - - WSW 13 15 7 8 - - -
21/06:00am 9.9 - - - - SW 11 15 6 8 - - -
21/05:30am 10.0 - - - - WSW 7 13 4 7 - - -
21/05:00am 10.2 - - - - WSW 13 17 7 9 - - -
21/04:30am 10.3 - - - - W 15 17 8 9 - - -
21/04:00am 10.3 - - - - W 13 15 7 8 - - -
21/03:30am 10.7 - - - - W 9 13 5 7 - - -
21/03:00am 10.7 - - - - W 11 15 6 8 - - -
21/02:30am 10.7 - - - - W 9 13 5 7 - - -
21/02:00am 10.3 - - - - W 7 11 4 6 - - -
21/01:30am 11.0 - - - - W 11 15 6 8 - - -
21/01:00am 10.9 - - - - W 13 17 7 9 - - -
21/12:30am 11.0 - - - - W 22 26 12 14 - - -
21/12:00am 11.1 - - - - WSW 17 20 9 11 - - -
 
Date/Time
EST
Temp
°C
App
Temp
°C
Dew
Point
°C
Rel
Hum
%
Delta-T
°C
Wind Press
QNH
hPa
Press
MSL
hPa
Rain since
9am
mm
Dir  Spd
km/h
Gust
km/h
Spd
kts
Gust
kts
20/11:30pm 11.7 - - - - WSW 9 11 5 6 - - -
20/11:00pm 11.9 - - - - WSW 9 11 5 6 - - -
20/10:30pm 12.5 - - - - WSW 13 17 7 9 - - -
20/10:00pm 12.8 - - - - WSW 13 17 7 9 - - -
20/09:30pm 13.0 - - - - WSW 13 15 7 8 - - -
20/09:00pm 13.0 - - - - WSW 11 13 6 7 - - -
20/08:30pm 13.5 - - - - WSW 11 15 6 8 - - -
20/08:00pm 13.7 - - - - WSW 15 20 8 11 - - -
20/07:30pm 13.8 - - - - SW 11 15 6 8 - - -
20/07:00pm 14.0 - - - - SSW 15 17 8 9 - - -
20/06:30pm 14.0 - - - - SSW 19 26 10 14 - - -
20/06:00pm 13.9 - - - - SSW 20 26 11 14 - - -
20/05:30pm 14.1 - - - - SSW 24 32 13 17 - - -
20/05:00pm 14.2 - - - - S 24 30 13 16 - - -
20/04:30pm 13.9 - - - - SSW 28 35 15 19 - - -
20/04:00pm 14.0 - - - - SSW 32 41 17 22 - - -
20/03:30pm 14.0 - - - - SW 37 43 20 23 - - -
20/03:00pm 13.8 - - - - SSW 33 44 18 24 - - -
20/02:30pm 13.6 - - - - SSW 35 43 19 23 - - -
20/02:00pm 13.7 - - - - SSW 28 37 15 20 - - -
20/01:30pm 13.4 - - - - SW 35 50 19 27 - - -
20/01:00pm 13.5 - - - - SSW 35 43 19 23 - - -
20/12:30pm 13.3 - - - - SSW 32 43 17 23 - - -
20/12:00pm 13.2 - - - - SSW 33 46 18 25 - - -
20/11:30am 13.0 - - - - SSW 33 41 18 22 - - -
20/11:00am 12.9 - - - - SSW 32 41 17 22 - - -
20/10:30am 12.5 - - - - SSW 33 50 18 27 - - -
20/10:00am 11.8 - - - - SW 26 35 14 19 - - -
20/09:30am 11.3 - - - - WSW 26 35 14 19 - - -
20/09:00am 10.1 - - - - WSW 22 32 12 17 - - -
20/08:30am 9.5 - - - - W 24 32 13 17 - - -
20/08:00am 8.8 - - - - W 28 35 15 19 - - -
20/07:30am 8.5 - - - - W 28 39 15 21 - - -
20/07:00am 8.3 - - - - W 28 37 15 20 - - -
20/06:30am 8.0 - - - - W 30 39 16 21 - - -
20/06:00am 8.2 - - - - W 28 35 15 19 - - -
20/05:30am 8.7 - - - - WSW 30 37 16 20 - - -
20/05:00am 8.3 - - - - W 30 39 16 21 - - -
20/04:30am 8.5 - - - - WSW 28 37 15 20 - - -
20/04:00am 8.5 - - - - W 32 41 17 22 - - -
20/03:30am 8.8 - - - - W 32 39 17 21 - - -
20/03:00am 9.1 - - - - W 28 37 15 20 - - -
20/02:30am 9.3 - - - - W 24 35 13 19 - - -
20/02:00am 9.6 - - - - WSW 26 35 14 19 - - -
20/01:30am 9.7 - - - - WSW 26 37 14 20 - - -
20/01:00am 10.3 - - - - WSW 30 41 16 22 - - -

Latest Capital City Observations: Canberra | Sydney | Melbourne | Brisbane | Adelaide | Perth | Hobart | Darwin

Other Formats:

Comma delimited format used in spreadsheet applications
http://www.bom.gov.au/fwo/IDN60901/IDN60901.95766.axf

JavaScript Object Notation format (JSON) in row-major order
http://www.bom.gov.au/fwo/IDN60901/IDN60901.95766.json